sensor_id;sensor_type;location;lat;lon;timestamp;temperature;humidity
75688;HTU21D;64300;45.034;38.910;2023-03-01T00:02:06;4.83;104.69
75688;HTU21D;64300;45.034;38.910;2023-03-01T00:04:32;4.84;104.76
75688;HTU21D;64300;45.034;38.910;2023-03-01T00:06:58;4.91;103.23
75688;HTU21D;64300;45.034;38.910;2023-03-01T00:09:24;4.95;102.83
75688;HTU21D;64300;45.034;38.910;2023-03-01T00:11:49;5.01;102.36
75688;HTU21D;64300;45.034;38.910;2023-03-01T00:14:15;5.00;103.11
75688;HTU21D;64300;45.034;38.910;2023-03-01T00:16:45;4.98;102.65
75688;HTU21D;64300;45.034;38.910;2023-03-01T00:19:17;4.97;103.05
75688;HTU21D;64300;45.034;38.910;2023-03-01T00:21:46;4.97;102.86
75688;HTU21D;64300;45.034;38.910;2023-03-01T00:24:12;4.91;103.93
75688;HTU21D;64300;45.034;38.910;2023-03-01T00:26:38;5.03;102.06
75688;HTU21D;64300;45.034;38.910;2023-03-01T00:29:03;5.08;101.38
75688;HTU21D;64300;45.034;38.910;2023-03-01T00:31:31;5.06;102.83
75688;HTU21D;64300;45.034;38.910;2023-03-01T00:34:00;5.09;101.45
75688;HTU21D;64300;45.034;38.910;2023-03-01T00:36:29;5.12;101.06
75688;HTU21D;64300;45.034;38.910;2023-03-01T00:38:55;5.13;101.06
75688;HTU21D;64300;45.034;38.910;2023-03-01T00:41:21;5.13;101.57
75688;HTU21D;64300;45.034;38.910;2023-03-01T00:43:52;5.11;100.70
75688;HTU21D;64300;45.034;38.910;2023-03-01T00:46:25;5.10;100.97
75688;HTU21D;64300;45.034;38.910;2023-03-01T00:48:52;5.08;101.85
75688;HTU21D;64300;45.034;38.910;2023-03-01T00:51:20;5.15;100.48
75688;HTU21D;64300;45.034;38.910;2023-03-01T00:53:46;5.20;100.11
75688;HTU21D;64300;45.034;38.910;2023-03-01T00:56:14;5.24;99.86
75688;HTU21D;64300;45.034;38.910;2023-03-01T00:58:40;5.27;99.70
75688;HTU21D;64300;45.034;38.910;2023-03-01T01:01:14;5.22;99.67
75688;HTU21D;64300;45.034;38.910;2023-03-01T01:03:47;5.20;99.11
75688;HTU21D;64300;45.034;38.910;2023-03-01T01:06:19;5.08;99.74
75688;HTU21D;64300;45.034;38.910;2023-03-01T01:08:45;5.05;99.35
75688;HTU21D;64300;45.034;38.910;2023-03-01T01:11:12;4.95;99.62
75688;HTU21D;64300;45.034;38.910;2023-03-01T01:13:39;5.02;98.71
75688;HTU21D;64300;45.034;38.910;2023-03-01T01:16:07;4.97;98.95
75688;HTU21D;64300;45.034;38.910;2023-03-01T01:18:33;4.95;99.03
75688;HTU21D;64300;45.034;38.910;2023-03-01T01:21:03;4.97;98.47
75688;HTU21D;64300;45.034;38.910;2023-03-01T01:23:29;4.89;98.63
75688;HTU21D;64300;45.034;38.910;2023-03-01T01:25:54;4.90;98.58
75688;HTU21D;64300;45.034;38.910;2023-03-01T01:28:20;4.89;98.41
75688;HTU21D;64300;45.034;38.910;2023-03-01T01:30:47;4.91;98.23
75688;HTU21D;64300;45.034;38.910;2023-03-01T01:33:13;4.88;98.55
75688;HTU21D;64300;45.034;38.910;2023-03-01T01:35:39;4.89;98.42
75688;HTU21D;64300;45.034;38.910;2023-03-01T01:38:05;4.96;97.99
75688;HTU21D;64300;45.034;38.910;2023-03-01T01:40:31;5.02;97.78
75688;HTU21D;64300;45.034;38.910;2023-03-01T01:42:57;5.02;97.54
75688;HTU21D;64300;45.034;38.910;2023-03-01T01:45:34;5.00;97.74
75688;HTU21D;64300;45.034;38.910;2023-03-01T01:48:06;4.97;97.51
75688;HTU21D;64300;45.034;38.910;2023-03-01T01:50:35;4.89;98.11
75688;HTU21D;64300;45.034;38.910;2023-03-01T01:53:14;4.94;97.44
75688;HTU21D;64300;45.034;38.910;2023-03-01T01:55:46;5.00;96.97
75688;HTU21D;64300;45.034;38.910;2023-03-01T01:58:15;5.01;96.65
75688;HTU21D;64300;45.034;38.910;2023-03-01T02:00:43;5.01;96.58
75688;HTU21D;64300;45.034;38.910;2023-03-01T02:03:12;5.05;96.32
75688;HTU21D;64300;45.034;38.910;2023-03-01T02:05:51;4.97;96.62
75688;HTU21D;64300;45.034;38.910;2023-03-01T02:08:19;4.96;96.26
75688;HTU21D;64300;45.034;38.910;2023-03-01T02:10:46;4.91;96.36
75688;HTU21D;64300;45.034;38.910;2023-03-01T02:13:16;4.86;96.71
75688;HTU21D;64300;45.034;38.910;2023-03-01T02:15:43;4.77;97.18
75688;HTU21D;64300;45.034;38.910;2023-03-01T02:18:11;4.81;96.93
75688;HTU21D;64300;45.034;38.910;2023-03-01T02:23:28;4.79;96.65
75688;HTU21D;64300;45.034;38.910;2023-03-01T02:26:11;4.83;96.48
75688;HTU21D;64300;45.034;38.910;2023-03-01T02:28:42;4.80;96.27
75688;HTU21D;64300;45.034;38.910;2023-03-01T02:31:09;4.77;96.06
75688;HTU21D;64300;45.034;38.910;2023-03-01T02:33:55;4.68;95.91
75688;HTU21D;64300;45.034;38.910;2023-03-01T02:36:25;4.64;95.92
75688;HTU21D;64300;45.034;38.910;2023-03-01T02:38:55;4.52;96.91
75688;HTU21D;64300;45.034;38.910;2023-03-01T02:41:23;4.47;97.29
75688;HTU21D;64300;45.034;38.910;2023-03-01T02:43:50;4.46;96.58
75688;HTU21D;64300;45.034;38.910;2023-03-01T02:46:19;4.43;96.66
75688;HTU21D;64300;45.034;38.910;2023-03-01T02:48:54;4.41;96.67
75688;HTU21D;64300;45.034;38.910;2023-03-01T02:54:07;4.34;96.90
75688;HTU21D;64300;45.034;38.910;2023-03-01T02:56:34;4.31;96.89
75688;HTU21D;64300;45.034;38.910;2023-03-01T02:59:01;4.30;96.88
75688;HTU21D;64300;45.034;38.910;2023-03-01T03:01:28;4.26;97.15
75688;HTU21D;64300;45.034;38.910;2023-03-01T03:04:04;4.23;97.10
75688;HTU21D;64300;45.034;38.910;2023-03-01T03:06:31;4.22;97.16
75688;HTU21D;64300;45.034;38.910;2023-03-01T03:08:57;4.20;97.21
75688;HTU21D;64300;45.034;38.910;2023-03-01T03:11:24;4.18;97.31
75688;HTU21D;64300;45.034;38.910;2023-03-01T03:13:50;4.16;97.33
75688;HTU21D;64300;45.034;38.910;2023-03-01T03:16:27;4.15;97.45
75688;HTU21D;64300;45.034;38.910;2023-03-01T03:18:55;4.13;97.36
75688;HTU21D;64300;45.034;38.910;2023-03-01T03:21:31;4.10;97.45
75688;HTU21D;64300;45.034;38.910;2023-03-01T03:23:58;4.07;97.49
75688;HTU21D;64300;45.034;38.910;2023-03-01T03:26:25;4.06;97.57
75688;HTU21D;64300;45.034;38.910;2023-03-01T03:28:51;4.06;97.63
75688;HTU21D;64300;45.034;38.910;2023-03-01T03:31:17;4.03;97.58
75688;HTU21D;64300;45.034;38.910;2023-03-01T03:33:43;4.04;97.60
75688;HTU21D;64300;45.034;38.910;2023-03-01T03:36:09;4.04;97.74
75688;HTU21D;64300;45.034;38.910;2023-03-01T03:38:39;4.04;97.80
75688;HTU21D;64300;45.034;38.910;2023-03-01T03:41:07;4.02;97.81
75688;HTU21D;64300;45.034;38.910;2023-03-01T03:43:36;4.02;97.89
75688;HTU21D;64300;45.034;38.910;2023-03-01T03:46:03;4.01;97.95
75688;HTU21D;64300;45.034;38.910;2023-03-01T03:48:36;3.99;97.98
75688;HTU21D;64300;45.034;38.910;2023-03-01T03:51:02;3.98;98.01
75688;HTU21D;64300;45.034;38.910;2023-03-01T03:53:31;3.98;98.16
75688;HTU21D;64300;45.034;38.910;2023-03-01T03:55:56;3.94;98.00
75688;HTU21D;64300;45.034;38.910;2023-03-01T03:58:24;3.91;98.44
75688;HTU21D;64300;45.034;38.910;2023-03-01T04:00:55;3.86;99.26
75688;HTU21D;64300;45.034;38.910;2023-03-01T04:03:23;3.86;99.09
75688;HTU21D;64300;45.034;38.910;2023-03-01T04:05:52;3.87;99.03
75688;HTU21D;64300;45.034;38.910;2023-03-01T04:08:20;3.85;99.04
75688;HTU21D;64300;45.034;38.910;2023-03-01T04:10:48;3.84;98.98
75688;HTU21D;64300;45.034;38.910;2023-03-01T04:13:17;3.83;99.11
75688;HTU21D;64300;45.034;38.910;2023-03-01T04:15:49;3.84;99.00
75688;HTU21D;64300;45.034;38.910;2023-03-01T04:18:17;3.84;99.00
75688;HTU21D;64300;45.034;38.910;2023-03-01T04:20:44;3.82;99.13
75688;HTU21D;64300;45.034;38.910;2023-03-01T04:23:19;3.83;99.16
75688;HTU21D;64300;45.034;38.910;2023-03-01T04:25:54;3.82;99.09
75688;HTU21D;64300;45.034;38.910;2023-03-01T04:28:25;3.80;99.16
75688;HTU21D;64300;45.034;38.910;2023-03-01T04:30:52;3.80;99.13
75688;HTU21D;64300;45.034;38.910;2023-03-01T04:33:19;3.80;99.11
75688;HTU21D;64300;45.034;38.910;2023-03-01T04:35:45;3.82;99.20
75688;HTU21D;64300;45.034;38.910;2023-03-01T04:38:11;3.80;99.36
75688;HTU21D;64300;45.034;38.910;2023-03-01T04:40:37;3.80;99.30
75688;HTU21D;64300;45.034;38.910;2023-03-01T04:43:22;3.83;99.35
75688;HTU21D;64300;45.034;38.910;2023-03-01T04:45:47;3.83;99.22
75688;HTU21D;64300;45.034;38.910;2023-03-01T04:48:13;3.82;99.41
75688;HTU21D;64300;45.034;38.910;2023-03-01T04:50:39;3.85;99.33
75688;HTU21D;64300;45.034;38.910;2023-03-01T04:53:05;3.87;99.45
75688;HTU21D;64300;45.034;38.910;2023-03-01T04:55:31;3.89;99.54
75688;HTU21D;64300;45.034;38.910;2023-03-01T04:57:57;3.91;99.51
75688;HTU21D;64300;45.034;38.910;2023-03-01T05:00:23;3.94;99.50
75688;HTU21D;64300;45.034;38.910;2023-03-01T05:02:56;3.97;99.26
75688;HTU21D;64300;45.034;38.910;2023-03-01T05:05:36;3.94;99.48
75688;HTU21D;64300;45.034;38.910;2023-03-01T05:08:05;3.93;99.63
75688;HTU21D;64300;45.034;38.910;2023-03-01T05:10:32;3.99;99.58
75688;HTU21D;64300;45.034;38.910;2023-03-01T05:13:01;4.00;99.61
75688;HTU21D;64300;45.034;38.910;2023-03-01T05:15:29;4.04;99.57
75688;HTU21D;64300;45.034;38.910;2023-03-01T05:18:00;4.10;99.45
75688;HTU21D;64300;45.034;38.910;2023-03-01T05:20:27;4.15;99.38
75688;HTU21D;64300;45.034;38.910;2023-03-01T05:22:58;4.21;99.39
75688;HTU21D;64300;45.034;38.910;2023-03-01T05:25:24;4.24;99.28
75688;HTU21D;64300;45.034;38.910;2023-03-01T05:27:50;4.29;99.17
75688;HTU21D;64300;45.034;38.910;2023-03-01T05:30:17;4.34;99.67
75688;HTU21D;64300;45.034;38.910;2023-03-01T05:32:48;4.42;99.11
75688;HTU21D;64300;45.034;38.910;2023-03-01T05:35:16;4.46;99.13
75688;HTU21D;64300;45.034;38.910;2023-03-01T05:37:44;4.51;98.96
75688;HTU21D;64300;45.034;38.910;2023-03-01T05:40:12;4.53;99.00
75688;HTU21D;64300;45.034;38.910;2023-03-01T05:42:43;4.58;98.89
75688;HTU21D;64300;45.034;38.910;2023-03-01T05:45:10;4.62;98.87
75688;HTU21D;64300;45.034;38.910;2023-03-01T05:47:41;4.66;98.80
75688;HTU21D;64300;45.034;38.910;2023-03-01T05:53:12;4.66;100.07
75688;HTU21D;64300;45.034;38.910;2023-03-01T05:55:39;4.62;101.88
75688;HTU21D;64300;45.034;38.910;2023-03-01T05:58:06;4.60;101.07
75688;HTU21D;64300;45.034;38.910;2023-03-01T06:00:32;4.63;101.95
75688;HTU21D;64300;45.034;38.910;2023-03-01T06:02:59;4.65;100.05
75688;HTU21D;64300;45.034;38.910;2023-03-01T06:05:26;4.72;101.18
75688;HTU21D;64300;45.034;38.910;2023-03-01T06:07:52;4.79;100.24
75688;HTU21D;64300;45.034;38.910;2023-03-01T06:10:20;4.86;99.66
75688;HTU21D;64300;45.034;38.910;2023-03-01T06:12:46;4.94;99.22
75688;HTU21D;64300;45.034;38.910;2023-03-01T06:15:15;5.02;99.09
75688;HTU21D;64300;45.034;38.910;2023-03-01T06:17:42;5.10;98.70
75688;HTU21D;64300;45.034;38.910;2023-03-01T06:20:21;5.20;98.45
75688;HTU21D;64300;45.034;38.910;2023-03-01T06:22:48;5.31;98.12
75688;HTU21D;64300;45.034;38.910;2023-03-01T06:25:20;5.38;98.03
75688;HTU21D;64300;45.034;38.910;2023-03-01T06:27:47;5.47;97.29
75688;HTU21D;64300;45.034;38.910;2023-03-01T06:30:16;5.36;97.08
75688;HTU21D;64300;45.034;38.910;2023-03-01T06:32:43;5.38;96.81
75688;HTU21D;64300;45.034;38.910;2023-03-01T06:35:13;5.32;97.11
75688;HTU21D;64300;45.034;38.910;2023-03-01T06:37:43;5.31;97.54
75688;HTU21D;64300;45.034;38.910;2023-03-01T06:40:10;5.40;97.26
75688;HTU21D;64300;45.034;38.910;2023-03-01T06:42:38;5.40;95.70
75688;HTU21D;64300;45.034;38.910;2023-03-01T06:45:06;5.48;96.12
75688;HTU21D;64300;45.034;38.910;2023-03-01T06:48:00;5.42;95.30
75688;HTU21D;64300;45.034;38.910;2023-03-01T06:50:26;5.35;95.52
75688;HTU21D;64300;45.034;38.910;2023-03-01T06:52:56;5.49;95.59
75688;HTU21D;64300;45.034;38.910;2023-03-01T06:55:22;5.45;94.68
75688;HTU21D;64300;45.034;38.910;2023-03-01T06:57:48;5.43;94.83
75688;HTU21D;64300;45.034;38.910;2023-03-01T07:00:14;5.38;94.74
75688;HTU21D;64300;45.034;38.910;2023-03-01T07:02:40;5.27;93.57
75688;HTU21D;64300;45.034;38.910;2023-03-01T07:05:06;5.30;93.85
75688;HTU21D;64300;45.034;38.910;2023-03-01T07:07:33;5.45;94.43
75688;HTU21D;64300;45.034;38.910;2023-03-01T07:09:59;5.55;93.47
75688;HTU21D;64300;45.034;38.910;2023-03-01T07:12:24;5.70;93.72
75688;HTU21D;64300;45.034;38.910;2023-03-01T07:14:50;5.82;92.23
75688;HTU21D;64300;45.034;38.910;2023-03-01T07:17:16;5.87;92.56
75688;HTU21D;64300;45.034;38.910;2023-03-01T07:19:42;5.98;92.57
75688;HTU21D;64300;45.034;38.910;2023-03-01T07:22:08;6.13;92.49
75688;HTU21D;64300;45.034;38.910;2023-03-01T07:24:34;6.28;91.79
75688;HTU21D;64300;45.034;38.910;2023-03-01T07:27:00;6.35;89.15
75688;HTU21D;64300;45.034;38.910;2023-03-01T07:29:27;6.35;90.15
75688;HTU21D;64300;45.034;38.910;2023-03-01T07:31:54;6.34;88.47
75688;HTU21D;64300;45.034;38.910;2023-03-01T07:34:20;6.25;86.52
75688;HTU21D;64300;45.034;38.910;2023-03-01T07:36:46;6.27;88.76
75688;HTU21D;64300;45.034;38.910;2023-03-01T07:39:12;6.31;89.59
75688;HTU21D;64300;45.034;38.910;2023-03-01T07:41:38;6.25;85.96
75688;HTU21D;64300;45.034;38.910;2023-03-01T07:44:05;6.38;88.59
75688;HTU21D;64300;45.034;38.910;2023-03-01T07:46:31;6.50;88.57
75688;HTU21D;64300;45.034;38.910;2023-03-01T07:48:57;6.61;88.04
75688;HTU21D;64300;45.034;38.910;2023-03-01T07:51:24;6.65;87.10
75688;HTU21D;64300;45.034;38.910;2023-03-01T07:53:50;6.70;86.44
75688;HTU21D;64300;45.034;38.910;2023-03-01T07:56:16;6.80;86.06
75688;HTU21D;64300;45.034;38.910;2023-03-01T07:58:47;6.84;86.74
75688;HTU21D;64300;45.034;38.910;2023-03-01T08:01:14;6.88;84.51
75688;HTU21D;64300;45.034;38.910;2023-03-01T08:03:41;6.88;86.19
75688;HTU21D;64300;45.034;38.910;2023-03-01T08:06:10;6.98;85.15
75688;HTU21D;64300;45.034;38.910;2023-03-01T08:08:37;6.99;84.28
75688;HTU21D;64300;45.034;38.910;2023-03-01T08:11:05;6.93;83.39
75688;HTU21D;64300;45.034;38.910;2023-03-01T08:13:31;6.79;83.22
75688;HTU21D;64300;45.034;38.910;2023-03-01T08:16:01;6.79;83.06
75688;HTU21D;64300;45.034;38.910;2023-03-01T08:18:27;6.75;83.23
75688;HTU21D;64300;45.034;38.910;2023-03-01T08:21:00;6.93;83.07
75688;HTU21D;64300;45.034;38.910;2023-03-01T08:23:26;7.04;82.99
75688;HTU21D;64300;45.034;38.910;2023-03-01T08:25:52;7.12;82.55
75688;HTU21D;64300;45.034;38.910;2023-03-01T08:28:18;6.93;79.71
75688;HTU21D;64300;45.034;38.910;2023-03-01T08:30:44;7.03;81.75
75688;HTU21D;64300;45.034;38.910;2023-03-01T08:35:51;7.26;82.75
75688;HTU21D;64300;45.034;38.910;2023-03-01T08:38:16;7.45;82.54
75688;HTU21D;64300;45.034;38.910;2023-03-01T08:40:42;7.60;82.07
75688;HTU21D;64300;45.034;38.910;2023-03-01T08:43:08;7.71;81.57
75688;HTU21D;64300;45.034;38.910;2023-03-01T08:45:34;7.81;81.30
75688;HTU21D;64300;45.034;38.910;2023-03-01T08:47:59;7.82;79.56
75688;HTU21D;64300;45.034;38.910;2023-03-01T08:50:25;7.84;80.27
75688;HTU21D;64300;45.034;38.910;2023-03-01T08:52:54;7.91;79.95
75688;HTU21D;64300;45.034;38.910;2023-03-01T08:55:20;8.00;79.17
75688;HTU21D;64300;45.034;38.910;2023-03-01T08:57:46;8.08;78.40
75688;HTU21D;64300;45.034;38.910;2023-03-01T09:00:12;8.12;78.73
75688;HTU21D;64300;45.034;38.910;2023-03-01T09:02:40;8.16;78.37
75688;HTU21D;64300;45.034;38.910;2023-03-01T09:05:06;8.23;78.43
75688;HTU21D;64300;45.034;38.910;2023-03-01T09:07:32;8.33;78.23
75688;HTU21D;64300;45.034;38.910;2023-03-01T09:09:57;8.39;78.12
75688;HTU21D;64300;45.034;38.910;2023-03-01T09:12:23;8.46;77.74
75688;HTU21D;64300;45.034;38.910;2023-03-01T09:14:52;8.49;77.05
75688;HTU21D;64300;45.034;38.910;2023-03-01T09:17:19;8.52;76.42
75688;HTU21D;64300;45.034;38.910;2023-03-01T09:19:47;8.57;76.32
75688;HTU21D;64300;45.034;38.910;2023-03-01T09:22:12;8.63;75.85
75688;HTU21D;64300;45.034;38.910;2023-03-01T09:24:38;8.63;75.63
75688;HTU21D;64300;45.034;38.910;2023-03-01T09:27:07;8.64;75.25
75688;HTU21D;64300;45.034;38.910;2023-03-01T09:30:18;8.67;75.21
75688;HTU21D;64300;45.034;38.910;2023-03-01T09:36:25;8.81;74.49
75688;HTU21D;64300;45.034;38.910;2023-03-01T09:38:51;8.90;73.54
75688;HTU21D;64300;45.034;38.910;2023-03-01T09:43:50;8.83;72.85
75688;HTU21D;64300;45.034;38.910;2023-03-01T09:46:36;8.74;71.98
75688;HTU21D;64300;45.034;38.910;2023-03-01T09:49:14;8.66;72.12
75688;HTU21D;64300;45.034;38.910;2023-03-01T09:51:43;8.62;72.17
75688;HTU21D;64300;45.034;38.910;2023-03-01T09:54:14;8.63;71.97
75688;HTU21D;64300;45.034;38.910;2023-03-01T09:56:41;8.64;72.18
75688;HTU21D;64300;45.034;38.910;2023-03-01T10:01:55;8.63;71.90
75688;HTU21D;64300;45.034;38.910;2023-03-01T10:04:31;8.64;72.30
75688;HTU21D;64300;45.034;38.910;2023-03-01T10:09:41;8.71;71.92
75688;HTU21D;64300;45.034;38.910;2023-03-01T10:12:12;8.64;71.92
75688;HTU21D;64300;45.034;38.910;2023-03-01T10:17:39;8.65;71.80
75688;HTU21D;64300;45.034;38.910;2023-03-01T10:20:17;8.63;71.44
75688;HTU21D;64300;45.034;38.910;2023-03-01T10:22:44;8.63;71.83
75688;HTU21D;64300;45.034;38.910;2023-03-01T10:31:15;8.59;71.56
75688;HTU21D;64300;45.034;38.910;2023-03-01T10:33:44;8.55;71.64
75688;HTU21D;64300;45.034;38.910;2023-03-01T10:36:09;8.50;71.97
75688;HTU21D;64300;45.034;38.910;2023-03-01T10:38:54;8.33;70.90
75688;HTU21D;64300;45.034;38.910;2023-03-01T10:41:25;8.04;70.91
75688;HTU21D;64300;45.034;38.910;2023-03-01T10:43:55;7.87;69.38
75688;HTU21D;64300;45.034;38.910;2023-03-01T10:46:28;7.85;70.87
75688;HTU21D;64300;45.034;38.910;2023-03-01T10:49:23;7.83;69.78
75688;HTU21D;64300;45.034;38.910;2023-03-01T10:51:52;7.91;71.40
75688;HTU21D;64300;45.034;38.910;2023-03-01T10:54:22;8.02;69.13
75688;HTU21D;64300;45.034;38.910;2023-03-01T10:56:56;8.20;71.18
75688;HTU21D;64300;45.034;38.910;2023-03-01T10:59:30;8.33;71.12
75688;HTU21D;64300;45.034;38.910;2023-03-01T11:02:16;8.42;70.27
75688;HTU21D;64300;45.034;38.910;2023-03-01T11:05:01;8.44;67.97
75688;HTU21D;64300;45.034;38.910;2023-03-01T11:07:27;8.34;66.78
75688;HTU21D;64300;45.034;38.910;2023-03-01T11:10:11;8.46;68.94
75688;HTU21D;64300;45.034;38.910;2023-03-01T11:12:38;8.56;69.52
75688;HTU21D;64300;45.034;38.910;2023-03-01T11:15:04;8.65;69.51
75688;HTU21D;64300;45.034;38.910;2023-03-01T11:17:31;8.73;69.16
75688;HTU21D;64300;45.034;38.910;2023-03-01T11:22:55;8.73;67.84
75688;HTU21D;64300;45.034;38.910;2023-03-01T11:25:27;8.67;68.04
75688;HTU21D;64300;45.034;38.910;2023-03-01T11:27:55;8.47;65.75
75688;HTU21D;64300;45.034;38.910;2023-03-01T11:30:24;8.43;68.10
75688;HTU21D;64300;45.034;38.910;2023-03-01T11:35:38;8.39;68.04
75688;HTU21D;64300;45.034;38.910;2023-03-01T11:38:18;8.44;67.23
75688;HTU21D;64300;45.034;38.910;2023-03-01T11:41:00;8.46;67.23
75688;HTU21D;64300;45.034;38.910;2023-03-01T11:57:47;8.52;66.04
75688;HTU21D;64300;45.034;38.910;2023-03-01T12:03:34;8.57;66.19
75688;HTU21D;64300;45.034;38.910;2023-03-01T12:06:26;8.61;65.89
75688;HTU21D;64300;45.034;38.910;2023-03-01T12:34:29;9.00;61.41
75688;HTU21D;64300;45.034;38.910;2023-03-01T12:40:13;8.81;60.10
75688;HTU21D;64300;45.034;38.910;2023-03-01T12:50:50;8.46;59.60
75688;HTU21D;64300;45.034;38.910;2023-03-01T12:53:52;8.39;58.37
75688;HTU21D;64300;45.034;38.910;2023-03-01T12:56:20;8.39;59.50
75688;HTU21D;64300;45.034;38.910;2023-03-01T13:07:28;8.15;58.24
75688;HTU21D;64300;45.034;38.910;2023-03-01T13:13:19;8.01;55.26
75688;HTU21D;64300;45.034;38.910;2023-03-01T13:15:45;8.01;58.93
75688;HTU21D;64300;45.034;38.910;2023-03-01T13:31:05;7.41;58.86
75688;HTU21D;64300;45.034;38.910;2023-03-01T13:36:02;7.34;57.73
75688;HTU21D;64300;45.034;38.910;2023-03-01T13:41:09;7.38;59.31
75688;HTU21D;64300;45.034;38.910;2023-03-01T13:43:36;7.38;59.42
75688;HTU21D;64300;45.034;38.910;2023-03-01T13:46:23;7.42;59.61
75688;HTU21D;64300;45.034;38.910;2023-03-01T13:48:51;7.46;59.60
75688;HTU21D;64300;45.034;38.910;2023-03-01T13:51:23;7.52;59.16
75688;HTU21D;64300;45.034;38.910;2023-03-01T13:53:50;7.55;58.43
75688;HTU21D;64300;45.034;38.910;2023-03-01T13:56:24;7.50;57.84
75688;HTU21D;64300;45.034;38.910;2023-03-01T13:59:15;7.54;58.68
75688;HTU21D;64300;45.034;38.910;2023-03-01T14:01:42;7.56;58.12
75688;HTU21D;64300;45.034;38.910;2023-03-01T14:04:24;7.54;53.52
75688;HTU21D;64300;45.034;38.910;2023-03-01T14:07:13;7.57;57.11
75688;HTU21D;64300;45.034;38.910;2023-03-01T14:09:44;7.52;56.87
75688;HTU21D;64300;45.034;38.910;2023-03-01T14:15:50;7.35;55.47
75688;HTU21D;64300;45.034;38.910;2023-03-01T14:20:31;7.17;55.42
75688;HTU21D;64300;45.034;38.910;2023-03-01T14:23:00;7.09;55.47
75688;HTU21D;64300;45.034;38.910;2023-03-01T14:25:32;7.04;55.85
75688;HTU21D;64300;45.034;38.910;2023-03-01T14:28:12;6.97;56.19
75688;HTU21D;64300;45.034;38.910;2023-03-01T14:33:20;6.79;56.74
75688;HTU21D;64300;45.034;38.910;2023-03-01T14:38:33;6.63;57.43
75688;HTU21D;64300;45.034;38.910;2023-03-01T14:41:12;6.58;58.18
75688;HTU21D;64300;45.034;38.910;2023-03-01T14:43:45;6.52;58.51
75688;HTU21D;64300;45.034;38.910;2023-03-01T14:46:24;6.46;59.00
75688;HTU21D;64300;45.034;38.910;2023-03-01T14:48:54;6.42;59.25
75688;HTU21D;64300;45.034;38.910;2023-03-01T14:51:22;6.40;59.49
75688;HTU21D;64300;45.034;38.910;2023-03-01T14:53:48;6.35;59.83
75688;HTU21D;64300;45.034;38.910;2023-03-01T14:56:16;6.28;60.62
75688;HTU21D;64300;45.034;38.910;2023-03-01T14:58:45;6.23;60.08
75688;HTU21D;64300;45.034;38.910;2023-03-01T15:01:16;6.20;60.20
75688;HTU21D;64300;45.034;38.910;2023-03-01T15:03:51;6.05;61.41
75688;HTU21D;64300;45.034;38.910;2023-03-01T15:06:19;6.04;60.69
75688;HTU21D;64300;45.034;38.910;2023-03-01T15:08:48;5.87;61.81
75688;HTU21D;64300;45.034;38.910;2023-03-01T15:11:32;5.90;61.38
75688;HTU21D;64300;45.034;38.910;2023-03-01T15:13:58;5.75;61.29
75688;HTU21D;64300;45.034;38.910;2023-03-01T15:16:30;5.79;61.41
75688;HTU21D;64300;45.034;38.910;2023-03-01T15:19:02;5.67;62.73
75688;HTU21D;64300;45.034;38.910;2023-03-01T15:21:37;5.61;62.41
75688;HTU21D;64300;45.034;38.910;2023-03-01T15:24:17;5.62;62.47
75688;HTU21D;64300;45.034;38.910;2023-03-01T15:26:52;5.55;62.37
75688;HTU21D;64300;45.034;38.910;2023-03-01T15:29:25;5.51;62.57
75688;HTU21D;64300;45.034;38.910;2023-03-01T15:32:24;5.41;63.16
75688;HTU21D;64300;45.034;38.910;2023-03-01T15:34:53;5.38;63.30
75688;HTU21D;64300;45.034;38.910;2023-03-01T15:37:49;5.33;64.12
75688;HTU21D;64300;45.034;38.910;2023-03-01T15:42:45;5.31;64.04
75688;HTU21D;64300;45.034;38.910;2023-03-01T15:45:23;5.24;64.20
75688;HTU21D;64300;45.034;38.910;2023-03-01T15:48:00;5.23;63.47
75688;HTU21D;64300;45.034;38.910;2023-03-01T15:50:33;5.17;63.82
75688;HTU21D;64300;45.034;38.910;2023-03-01T15:53:01;5.10;63.89
75688;HTU21D;64300;45.034;38.910;2023-03-01T15:55:31;5.07;63.71
75688;HTU21D;64300;45.034;38.910;2023-03-01T15:58:26;5.01;63.66
75688;HTU21D;64300;45.034;38.910;2023-03-01T16:00:52;4.93;63.94
75688;HTU21D;64300;45.034;38.910;2023-03-01T16:03:22;4.77;65.85
75688;HTU21D;64300;45.034;38.910;2023-03-01T16:05:49;4.77;64.60
75688;HTU21D;64300;45.034;38.910;2023-03-01T16:08:16;4.67;64.95
75688;HTU21D;64300;45.034;38.910;2023-03-01T16:10:42;4.63;65.31
75688;HTU21D;64300;45.034;38.910;2023-03-01T16:13:11;4.57;65.97
75688;HTU21D;64300;45.034;38.910;2023-03-01T16:15:38;4.56;65.62
75688;HTU21D;64300;45.034;38.910;2023-03-01T16:18:05;4.49;65.84
75688;HTU21D;64300;45.034;38.910;2023-03-01T16:20:32;4.44;66.23
75688;HTU21D;64300;45.034;38.910;2023-03-01T16:23:02;4.41;66.23
75688;HTU21D;64300;45.034;38.910;2023-03-01T16:25:29;4.37;66.56
75688;HTU21D;64300;45.034;38.910;2023-03-01T16:27:56;4.37;66.48
75688;HTU21D;64300;45.034;38.910;2023-03-01T16:30:23;4.32;67.23
75688;HTU21D;64300;45.034;38.910;2023-03-01T16:32:50;4.31;66.98
75688;HTU21D;64300;45.034;38.910;2023-03-01T16:35:17;4.24;67.51
75688;HTU21D;64300;45.034;38.910;2023-03-01T16:37:43;4.18;67.28
75688;HTU21D;64300;45.034;38.910;2023-03-01T16:40:17;4.10;68.11
75688;HTU21D;64300;45.034;38.910;2023-03-01T16:42:43;4.05;68.04
75688;HTU21D;64300;45.034;38.910;2023-03-01T16:45:10;4.02;67.62
75688;HTU21D;64300;45.034;38.910;2023-03-01T16:47:36;3.90;71.96
75688;HTU21D;64300;45.034;38.910;2023-03-01T16:50:02;3.85;70.16
75688;HTU21D;64300;45.034;38.910;2023-03-01T16:52:28;3.82;71.22
75688;HTU21D;64300;45.034;38.910;2023-03-01T16:54:54;3.77;69.78
75688;HTU21D;64300;45.034;38.910;2023-03-01T16:57:20;3.73;69.32
75688;HTU21D;64300;45.034;38.910;2023-03-01T16:59:53;3.64;70.23
75688;HTU21D;64300;45.034;38.910;2023-03-01T17:02:19;3.61;69.26
75688;HTU21D;64300;45.034;38.910;2023-03-01T17:04:55;3.55;69.50
75688;HTU21D;64300;45.034;38.910;2023-03-01T17:07:21;3.44;69.68
75688;HTU21D;64300;45.034;38.910;2023-03-01T17:09:48;3.31;72.67
75688;HTU21D;64300;45.034;38.910;2023-03-01T17:12:15;3.27;71.83
75688;HTU21D;64300;45.034;38.910;2023-03-01T17:14:41;3.26;70.37
75688;HTU21D;64300;45.034;38.910;2023-03-01T17:17:08;3.24;70.98
75688;HTU21D;64300;45.034;38.910;2023-03-01T17:19:35;3.20;69.90
75688;HTU21D;64300;45.034;38.910;2023-03-01T17:22:05;3.13;69.87
75688;HTU21D;64300;45.034;38.910;2023-03-01T17:24:36;3.09;69.97
75688;HTU21D;64300;45.034;38.910;2023-03-01T17:27:02;3.03;69.97
75688;HTU21D;64300;45.034;38.910;2023-03-01T17:29:29;2.99;70.13
75688;HTU21D;64300;45.034;38.910;2023-03-01T17:31:55;2.95;70.16
75688;HTU21D;64300;45.034;38.910;2023-03-01T17:34:22;2.91;70.30
75688;HTU21D;64300;45.034;38.910;2023-03-01T17:36:49;2.90;70.30
75688;HTU21D;64300;45.034;38.910;2023-03-01T17:39:17;2.86;70.38
75688;HTU21D;64300;45.034;38.910;2023-03-01T17:41:45;2.83;70.58
75688;HTU21D;64300;45.034;38.910;2023-03-01T17:44:11;2.80;70.76
75688;HTU21D;64300;45.034;38.910;2023-03-01T17:46:37;2.76;70.93